Flag for USA

Past Weather in 36°02'56.7"N, 90°30'29.2"W, USA — Yesterday and Last 2 Weeks

Currently: 62 °F. Fog. (Weather station: Poplar Bluff Municipal Airport, USA). See more current weather

Past Weather in 36°02'56.7"N, 90°30'29.2"W — Graph

°F

36°02'56.7"N, 90°30'29.2"W Temperature Yesterday

Maximum temperature yesterday: 85 °F (at 3:53 pm)
Minimum temperature yesterday: 66 °F (at 11:53 pm)
Average temperature yesterday: 74 °F

High & Low Weather Summary for the Past Weeks

 TemperatureHumidityPressure
High85 °F (Apr 15, 2:53 pm)97% (Apr 10, 10:53 pm)30.23 "Hg (Apr 10, 10:53 pm)
Low36 °F (Apr 5, 3:53 am)17% (Apr 8, 12:53 pm)29.54 "Hg (Apr 11, 4:53 am)
Average62 °F64%29.89 "Hg
* Reported Apr 3 12:53 am — Apr 18 12:53 am, 36°02'56.7"N, 90°30'29.2"W. Weather by CustomWeather, © 2024

Note: Actual official high and low records may vary slightly from our data, if they occured in-between our weather recording intervals... More about our weather records

36°02'56.7"N, 90°30'29.2"W Weather History for the Previous 24 Hours

Scroll right to see more
 ConditionsComfort  
Time TempWeatherWind HumidityBarometerVisibility
12:53 am
Thu, Apr 18
63 °FClear.No wind93%29.96 "Hg9 mi
11:53 pm
Wed, Apr 17
66 °FClear.3 mph90%29.96 "Hg10 mi
10:53 pm68 °FClear.3 mph84%29.96 "Hg10 mi
9:53 pm70 °FClear.7 mph76%29.97 "Hg10 mi
8:53 pm72 °FClear.7 mph66%29.95 "Hg10 mi
7:53 pm74 °FClear.7 mph60%29.93 "Hg10 mi
6:53 pm80 °FSunny.13 mph42%29.90 "Hg10 mi
5:53 pm84 °FSunny.8 mph33%29.88 "Hg10 mi
4:53 pm85 °FSunny.13 mph32%29.87 "Hg10 mi
3:53 pm85 °FSunny.9 mph32%29.86 "Hg10 mi
2:53 pm84 °FSunny.15 mph32%29.88 "Hg10 mi
1:53 pm84 °FSunny.15 mph33%29.89 "Hg10 mi
12:53 pm82 °FSunny.13 mph32%29.90 "Hg10 mi
11:53 am80 °FSunny.13 mph36%29.90 "Hg10 mi
10:53 am77 °FSunny.12 mph47%29.90 "Hg10 mi
9:53 am73 °FSunny.13 mph57%29.89 "Hg10 mi
8:53 am71 °FSunny.12 mph73%29.88 "Hg10 mi
7:53 am69 °FSunny.10 mph84%29.87 "Hg10 mi
6:53 am69 °FSunny.14 mph87%29.85 "Hg9 mi
6:01 am69 °FPassing clouds.13 mph90%29.85 "Hg9 mi
5:16 am69 °FPassing clouds.15 mph90%29.84 "Hg10 mi
5:08 am70 °FPassing clouds.14 mph87%29.84 "Hg10 mi
3:53 am70 °FPassing clouds.16 mph87%29.80 "Hg10 mi
3:42 am70 °FPartly cloudy.15 mph87%29.82 "Hg10 mi
2:53 am70 °FOvercast.12 mph90%29.80 "Hg10 mi
2:29 am70 °FOvercast.13 mph87%29.81 "Hg10 mi
2:13 am70 °FOvercast.16 mph87%29.82 "Hg10 mi
Weather by CustomWeather, © 2024

See weather overview